createdAt,value
2019-05-30T00:00:06.582Z,45.6
2019-05-30T00:05:11.800Z,45.6
2019-05-30T00:10:12.032Z,45.5
2019-05-30T00:15:12.302Z,45.5
2019-05-30T00:20:12.537Z,45.4
2019-05-30T00:25:12.799Z,45.4
2019-05-30T00:30:23.667Z,45.3
2019-05-30T00:35:24.264Z,45.2
2019-05-30T00:40:24.526Z,45.2
2019-05-30T00:45:24.754Z,45.2
2019-05-30T00:50:24.959Z,45.1
2019-05-30T00:55:25.203Z,45.1
2019-05-30T01:00:41.866Z,45
2019-05-30T01:05:43.002Z,45
2019-05-30T01:10:43.211Z,44.9
2019-05-30T01:15:43.448Z,44.9
2019-05-30T01:20:43.651Z,44.8
2019-05-30T01:25:43.844Z,44.7
2019-05-30T01:30:58.815Z,44.7
2019-05-30T01:35:59.763Z,44.7
2019-05-30T01:41:00.080Z,44.6
2019-05-30T01:46:00.414Z,44.6
2019-05-30T01:51:00.633Z,44.5
2019-05-30T01:56:00.832Z,44.5
2019-05-30T02:01:16.685Z,44.4
2019-05-30T02:06:21.787Z,44.4
2019-05-30T02:11:21.964Z,44.4
2019-05-30T02:16:22.201Z,44.3
2019-05-30T02:21:22.379Z,44.2
2019-05-30T02:26:22.550Z,44.2
2019-05-30T02:31:38.141Z,44.2
2019-05-30T02:36:39.291Z,44.1
2019-05-30T02:41:39.467Z,44.1
2019-05-30T02:46:39.632Z,44
2019-05-30T02:51:39.812Z,44
2019-05-30T02:56:39.979Z,43.9
2019-05-30T03:01:58.754Z,43.9
2019-05-30T03:07:01.899Z,43.8
2019-05-30T03:12:04.064Z,43.7
2019-05-30T03:17:05.377Z,43.7
2019-05-30T03:22:08.658Z,43.7
2019-05-30T03:27:11.627Z,43.6
2019-05-30T03:32:47.830Z,43.6
2019-05-30T03:38:00.406Z,43.6
2019-05-30T03:43:00.574Z,43.5
2019-05-30T03:48:00.731Z,43.4
2019-05-30T03:53:00.898Z,43.4
2019-05-30T03:58:01.079Z,43.4
2019-05-30T04:03:01.221Z,43.3
2019-05-30T04:08:01.390Z,43.3
2019-05-30T04:13:01.632Z,43.3
2019-05-30T04:18:03.455Z,43.2
2019-05-30T04:23:03.606Z,43.1
2019-05-30T04:28:05.434Z,43.1
2019-05-30T04:33:19.010Z,43.1
2019-05-30T04:38:26.413Z,43
2019-05-30T04:43:27.301Z,42.9
2019-05-30T04:48:27.463Z,42.9
2019-05-30T04:53:27.608Z,42.9
2019-05-30T04:58:27.764Z,42.8
2019-05-30T05:03:43.869Z,42.7
2019-05-30T05:08:44.658Z,42.7
2019-05-30T05:13:46.478Z,42.7
2019-05-30T05:18:48.310Z,42.6
2019-05-30T05:23:50.128Z,42.6
2019-05-30T05:28:50.278Z,42.6
2019-05-30T05:33:56.484Z,42.5
2019-05-30T05:38:59.285Z,42.5
2019-05-30T05:44:01.078Z,42.4
2019-05-30T05:49:02.896Z,42.4
2019-05-30T05:54:03.037Z,42.4
2019-05-30T05:59:04.836Z,42.3
2019-05-30T06:04:12.930Z,42.2
2019-05-30T06:09:16.323Z,42.2
2019-05-30T06:14:18.268Z,42.2
2019-05-30T06:19:21.179Z,42.2
2019-05-30T06:24:23.629Z,42.1
2019-05-30T06:29:26.254Z,42.1
2019-05-30T06:34:36.392Z,42.1
2019-05-30T06:39:39.937Z,42
2019-05-30T06:44:41.727Z,41.9
2019-05-30T06:49:43.485Z,41.9
2019-05-30T06:54:45.275Z,41.9
2019-05-30T06:59:47.027Z,41.9
2019-05-30T07:04:51.844Z,41.8
2019-05-30T07:09:54.179Z,41.7
2019-05-30T07:14:55.921Z,41.7
2019-05-30T07:19:57.674Z,41.7
2019-05-30T07:24:59.410Z,41.6
2019-05-30T07:30:01.162Z,41.6
2019-05-30T07:35:06.333Z,41.6
2019-05-30T07:40:09.163Z,41.5
2019-05-30T07:45:10.928Z,41.5
2019-05-30T07:50:12.689Z,41.4
2019-05-30T07:55:14.444Z,41.4
2019-05-30T08:00:16.213Z,41.4
2019-05-30T08:05:23.919Z,41.3
2019-05-30T08:10:27.615Z,41.3
2019-05-30T08:15:29.506Z,41.2
2019-05-30T08:20:31.668Z,41.2
2019-05-30T08:25:34.229Z,41.2
2019-05-30T08:30:36.619Z,41.1
2019-05-30T08:35:47.379Z,41.1
2019-05-30T08:40:50.964Z,41.1
2019-05-30T08:45:52.672Z,41.1
2019-05-30T08:50:53.461Z,41
2019-05-30T08:55:55.794Z,40.9
2019-05-30T09:00:57.646Z,40.9
2019-05-30T09:06:03.938Z,40.9
2019-05-30T09:11:06.145Z,40.9
2019-05-30T09:16:07.934Z,40.8
2019-05-30T09:21:09.708Z,40.8
2019-05-30T09:26:11.501Z,40.8
2019-05-30T09:31:13.268Z,40.8
2019-05-30T09:36:15.036Z,40.7
2019-05-30T09:41:16.793Z,40.6
2019-05-30T09:46:18.576Z,40.6
2019-05-30T09:51:20.370Z,40.6
2019-05-30T09:56:22.126Z,40.6
2019-05-30T10:01:23.918Z,40.5
2019-05-30T10:06:29.290Z,40.5
2019-05-30T10:11:31.855Z,40.4
2019-05-30T10:16:33.645Z,40.4
2019-05-30T10:21:35.417Z,40.4
2019-05-30T10:26:37.171Z,40.3
2019-05-30T10:31:38.937Z,40.3
2019-05-30T10:36:44.018Z,40.2
2019-05-30T10:41:47.563Z,40.2
2019-05-30T10:46:50.961Z,40.2
2019-05-30T10:51:57.223Z,40.2
2019-05-30T10:57:00.063Z,40.1
2019-05-30T11:02:01.790Z,40.1
2019-05-30T11:07:10.899Z,40.1
2019-05-30T11:12:12.805Z,40.1
2019-05-30T11:17:14.541Z,40
2019-05-30T11:22:16.286Z,40
2019-05-30T11:27:18.043Z,39.9
2019-05-30T11:32:19.798Z,39.9
2019-05-30T11:37:21.760Z,39.9
2019-05-30T11:42:23.499Z,39.9
2019-05-30T11:47:25.291Z,39.8
2019-05-30T11:52:27.043Z,39.8
2019-05-30T11:57:28.783Z,39.7
2019-05-30T12:02:30.532Z,39.7
2019-05-30T12:07:36.055Z,39.7
2019-05-30T12:12:38.488Z,39.7
2019-05-30T12:17:40.222Z,39.6
2019-05-30T12:22:41.972Z,39.6
2019-05-30T12:27:43.698Z,39.6
2019-05-30T12:32:45.418Z,39.6
2019-05-30T12:37:54.598Z,39.5
2019-05-30T12:42:59.656Z,39.5
2019-05-30T12:48:01.680Z,39.5
2019-05-30T12:53:03.378Z,39.4
2019-05-30T12:58:05.104Z,39.4
2019-05-30T13:03:07.265Z,39.4
2019-05-30T13:08:20.190Z,39.4
2019-05-30T13:13:22.310Z,39.3
2019-05-30T13:18:24.022Z,39.3
2019-05-30T13:23:25.743Z,39.2
2019-05-30T13:28:27.452Z,39.2
2019-05-30T13:33:29.178Z,39.2
2019-05-30T13:38:30.912Z,39.2
2019-05-30T13:43:32.639Z,39.1
2019-05-30T13:48:33.878Z,39.1
2019-05-30T13:53:35.589Z,39.1
2019-05-30T13:58:37.295Z,39.1
2019-05-30T14:03:38.998Z,39
2019-05-30T14:08:41.788Z,39
2019-05-30T14:13:43.720Z,38.9
2019-05-30T14:18:45.419Z,38.9
2019-05-30T14:23:47.131Z,38.9
2019-05-30T14:28:48.821Z,38.9
2019-05-30T14:33:50.514Z,38.9
2019-05-30T14:38:58.124Z,38.8
2019-05-30T14:44:00.422Z,38.8
2019-05-30T14:49:02.155Z,38.7
2019-05-30T14:54:05.198Z,38.7
2019-05-30T14:59:06.978Z,38.7
2019-05-30T15:04:09.181Z,38.7
2019-05-30T15:09:17.361Z,38.7
2019-05-30T15:14:23.866Z,38.7
2019-05-30T15:19:25.559Z,38.6
2019-05-30T15:24:27.270Z,38.6
2019-05-30T15:29:28.985Z,38.6
2019-05-30T15:34:30.963Z,38.6
2019-05-30T15:39:33.159Z,38.5
2019-05-30T15:44:34.939Z,38.5
2019-05-30T15:49:36.631Z,38.4
2019-05-30T15:54:38.341Z,38.4
2019-05-30T15:59:40.039Z,38.5
2019-05-30T16:04:41.763Z,40.2
2019-05-30T16:09:46.925Z,41.1
2019-05-30T16:14:49.116Z,41.9
2019-05-30T16:19:50.953Z,42.5
2019-05-30T16:24:51.092Z,43.1
2019-05-30T16:29:51.262Z,43.7
2019-05-30T16:34:51.563Z,44.2
2019-05-30T16:40:04.958Z,44.6
2019-05-30T16:45:06.153Z,45
2019-05-30T16:50:06.440Z,45.1
2019-05-30T16:55:06.680Z,45.5
2019-05-30T17:00:06.994Z,45.8
2019-05-30T17:05:07.259Z,46.1
2019-05-30T17:10:21.210Z,46.2
2019-05-30T17:15:23.887Z,46.4
2019-05-30T17:20:24.515Z,46.4
2019-05-30T17:25:25.210Z,46.6
2019-05-30T17:30:25.852Z,46.6
2019-05-30T17:35:26.326Z,46.6
2019-05-30T17:40:41.015Z,46.6
2019-05-30T17:45:45.491Z,46.7
2019-05-30T17:50:45.773Z,46.7
2019-05-30T17:55:46.054Z,46.7
2019-05-30T18:00:46.334Z,46.7
2019-05-30T18:05:46.586Z,46.7
2019-05-30T18:10:53.516Z,46.7
2019-05-30T18:15:54.124Z,46.9
2019-05-30T18:20:54.406Z,46.8
2019-05-30T18:25:54.691Z,46.8
2019-05-30T18:30:54.989Z,46.7
2019-05-30T18:35:55.281Z,46.9
2019-05-30T18:41:10.138Z,47.2
2019-05-30T18:46:11.247Z,47.5
2019-05-30T18:51:11.538Z,47.6
2019-05-30T18:56:11.845Z,47.7
2019-05-30T19:01:12.129Z,47.7
2019-05-30T19:06:12.437Z,47.6
2019-05-30T19:11:26.573Z,47.4
2019-05-30T19:16:28.463Z,47.4
2019-05-30T19:21:29.993Z,47.3
2019-05-30T19:26:30.475Z,47.2
2019-05-30T19:31:30.768Z,47.2
2019-05-30T19:36:31.337Z,47.2
2019-05-30T19:41:45.202Z,47.2
2019-05-30T19:46:50.913Z,47.1
2019-05-30T19:51:51.195Z,47.1
2019-05-30T19:56:51.446Z,47.1
2019-05-30T20:01:51.682Z,47
2019-05-30T20:06:51.959Z,47
2019-05-30T20:12:02.442Z,46.9
2019-05-30T20:17:03.273Z,46.9
2019-05-30T20:22:03.537Z,46.9
2019-05-30T20:27:03.813Z,46.8
2019-05-30T20:32:04.107Z,46.7
2019-05-30T20:37:04.389Z,46.7
2019-05-30T20:42:18.157Z,46.7
2019-05-30T20:47:19.179Z,46.6
2019-05-30T20:52:19.465Z,46.6
2019-05-30T20:57:19.725Z,46.5
2019-05-30T21:02:20.011Z,46.5
2019-05-30T21:07:20.260Z,46.4
2019-05-30T21:12:36.324Z,46.4
2019-05-30T21:17:37.709Z,46.4
2019-05-30T21:22:38.226Z,46.3
2019-05-30T21:27:38.995Z,46.2
2019-05-30T21:32:39.887Z,46.2
2019-05-30T21:37:41.718Z,46.1
2019-05-30T21:42:57.630Z,46.1
2019-05-30T21:47:59.663Z,46.1
2019-05-30T21:52:59.901Z,46
2019-05-30T21:58:00.144Z,45.9
2019-05-30T22:03:00.406Z,45.9
2019-05-30T22:08:00.668Z,45.9
2019-05-30T22:13:09.122Z,45.8
2019-05-30T22:18:09.741Z,45.7
2019-05-30T22:23:11.076Z,45.7
2019-05-30T22:28:11.446Z,45.6
2019-05-30T22:33:11.683Z,45.6
2019-05-30T22:38:11.961Z,45.5
2019-05-30T22:43:24.449Z,45.4
2019-05-30T22:48:25.175Z,45.4
2019-05-30T22:53:25.415Z,45.3
2019-05-30T22:58:25.636Z,45.3
2019-05-30T23:03:25.905Z,45.2
2019-05-30T23:08:26.145Z,45.2
2019-05-30T23:13:39.596Z,45.1
2019-05-30T23:18:40.410Z,45.1
2019-05-30T23:23:40.625Z,45
2019-05-30T23:28:40.851Z,45
2019-05-30T23:33:41.057Z,44.9
2019-05-30T23:38:41.268Z,44.9
2019-05-30T23:43:55.128Z,44.8
2019-05-30T23:48:57.740Z,44.7
2019-05-30T23:53:58.335Z,44.7
2019-05-30T23:58:58.895Z,44.6
